Time;durP1;ratioP1;P1;durP2;ratioP2;P2;SDS_P1;SDS_P2;PMS_P1;PMS_P2;Temp;Humidity;BMP_temperature;BMP_pressure;BME280_temperature;BME280_humidity;BME280_pressure;Samples;Min_cycle;Max_cycle;Signal;HPM_P1;HPM_P2
2023/09/28 00:01:52;;;;;;;13.65;7.05;;;;;;;14.45;100.00;100876.84;4958981;28;20429;-89
2023/09/28 00:04:21;;;;;;;10.87;7.23;;;;;;;14.42;100.00;100877.44;4979319;28;20800;-88
2023/09/28 00:06:48;;;;;;;13.50;7.60;;;;;;;14.42;100.00;100878.25;4999190;28;20431;-90
2023/09/28 00:09:16;;;;;;;10.50;6.87;;;;;;;14.42;100.00;100875.50;4971578;28;20446;-88
2023/09/28 00:11:45;;;;;;;10.65;6.82;;;;;;;14.35;100.00;100871.53;4985838;28;20431;-89
2023/09/28 00:14:19;;;;;;;10.35;6.75;;;;;;;14.34;100.00;100884.41;4982939;28;20423;-87
2023/09/28 00:16:51;;;;;;;12.03;7.37;;;;;;;14.34;100.00;100878.94;5003802;28;20427;-89
2023/09/28 00:19:19;;;;;;;11.18;7.68;;;;;;;14.38;100.00;100885.44;4989768;28;20426;-88
2023/09/28 00:21:46;;;;;;;11.13;7.38;;;;;;;14.40;100.00;100880.50;4977622;28;20432;-88
2023/09/28 00:24:15;;;;;;;11.50;7.15;;;;;;;14.40;100.00;100879.66;4980873;28;20436;-89
2023/09/28 00:26:43;;;;;;;12.30;7.17;;;;;;;14.41;100.00;100871.13;4986484;28;20427;-90
2023/09/28 00:29:12;;;;;;;13.35;8.05;;;;;;;14.42;100.00;100885.66;4986582;28;21183;-89
2023/09/28 00:31:41;;;;;;;10.82;7.32;;;;;;;14.52;100.00;100887.41;4972699;28;20953;-89
2023/09/28 00:34:09;;;;;;;12.35;7.50;;;;;;;14.48;100.00;100889.13;4987169;28;20754;-88
2023/09/28 00:36:36;;;;;;;12.18;7.55;;;;;;;14.51;100.00;100880.28;4960784;28;20432;-88
2023/09/28 00:39:11;;;;;;;13.03;7.77;;;;;;;14.59;100.00;100883.13;4984200;28;20789;-87
2023/09/28 00:41:45;;;;;;;11.52;7.70;;;;;;;14.61;100.00;100882.84;4985713;28;20426;-89
2023/09/28 00:44:15;;;;;;;11.40;7.53;;;;;;;14.61;100.00;100886.41;4972454;28;20443;-87
2023/09/28 00:46:48;;;;;;;11.60;7.57;;;;;;;14.59;100.00;100890.56;4989744;28;21175;-88
2023/09/28 00:49:17;;;;;;;11.57;7.78;;;;;;;14.56;100.00;100878.28;4982974;28;20488;-88
2023/09/28 00:51:50;;;;;;;13.77;7.72;;;;;;;14.54;100.00;100883.25;4975066;28;20850;-89
2023/09/28 00:54:23;;;;;;;11.05;7.47;;;;;;;14.55;100.00;100882.13;4980405;28;20430;-87
2023/09/28 00:56:56;;;;;;;13.87;7.60;;;;;;;14.46;100.00;100876.53;4986989;28;20426;-88
2023/09/28 00:59:25;;;;;;;14.93;7.90;;;;;;;14.42;100.00;100882.94;4979147;28;20455;-90
2023/09/28 01:01:54;;;;;;;14.18;7.85;;;;;;;14.40;100.00;100879.66;4988582;28;20732;-87
2023/09/28 01:04:23;;;;;;;13.07;7.68;;;;;;;14.44;100.00;100877.94;4975745;28;20493;-88
2023/09/28 01:06:56;;;;;;;14.52;7.57;;;;;;;14.38;100.00;100870.94;4998360;28;20420;-89
2023/09/28 01:09:29;;;;;;;14.00;7.65;;;;;;;14.44;100.00;100876.03;4984708;28;20445;-88
2023/09/28 01:12:04;;;;;;;12.60;8.20;;;;;;;14.39;100.00;100867.91;4954515;28;20437;-87
2023/09/28 01:14:35;;;;;;;13.68;7.80;;;;;;;14.43;100.00;100873.56;4979063;28;20427;-88
2023/09/28 01:17:03;;;;;;;11.88;7.47;;;;;;;14.41;100.00;100862.13;4981478;28;20904;-88
2023/09/28 01:19:36;;;;;;;12.73;7.97;;;;;;;14.42;100.00;100861.81;4974000;28;20842;-88
2023/09/28 01:22:13;;;;;;;12.00;8.35;;;;;;;14.45;100.00;100861.22;4978945;28;20420;-88
2023/09/28 01:24:47;;;;;;;12.55;8.35;;;;;;;14.48;100.00;100870.75;4979019;28;20424;-90
2023/09/28 01:27:15;;;;;;;16.15;8.45;;;;;;;14.52;100.00;100870.97;4987668;28;20514;-89
2023/09/28 01:29:43;;;;;;;14.87;8.23;;;;;;;14.51;100.00;100872.09;4984190;28;20795;-88
2023/09/28 01:32:11;;;;;;;12.82;8.10;;;;;;;14.57;100.00;100870.84;4980345;28;20427;-88
2023/09/28 01:34:40;;;;;;;13.40;8.60;;;;;;;14.59;100.00;100868.66;4986824;28;20438;-89
2023/09/28 01:37:08;;;;;;;13.93;8.80;;;;;;;14.61;100.00;100869.97;4974299;28;20899;-89
2023/09/28 01:39:43;;;;;;;13.20;8.60;;;;;;;14.65;100.00;100863.91;4981566;28;20781;-89
2023/09/28 01:42:10;;;;;;;14.32;8.70;;;;;;;14.64;100.00;100863.13;4988952;28;20422;-90
2023/09/28 01:44:43;;;;;;;17.92;8.90;;;;;;;14.65;100.00;100866.66;4972555;28;20428;-89
2023/09/28 01:47:11;;;;;;;13.75;8.70;;;;;;;14.62;100.00;100860.69;4978644;28;20447;-89
2023/09/28 01:49:44;;;;;;;12.48;7.80;;;;;;;14.61;100.00;100853.53;4982114;28;21415;-88
2023/09/28 01:52:12;;;;;;;13.48;8.35;;;;;;;14.63;100.00;100847.78;4972748;28;20432;-89
2023/09/28 01:54:39;;;;;;;13.35;8.65;;;;;;;14.62;100.00;100841.50;4978865;28;20437;-91
2023/09/28 01:57:09;;;;;;;13.68;8.43;;;;;;;14.51;100.00;100825.53;4989999;28;20434;-89
2023/09/28 01:59:41;;;;;;;14.50;8.98;;;;;;;14.43;100.00;100822.38;4987199;28;20418;-88
2023/09/28 02:02:10;;;;;;;16.13;9.23;;;;;;;14.48;100.00;100826.13;4976725;28;20450;-88
2023/09/28 02:04:37;;;;;;;13.80;9.15;;;;;;;14.40;100.00;100817.53;4978934;28;20448;-88
2023/09/28 02:07:06;;;;;;;15.68;8.57;;;;;;;14.45;100.00;100795.50;4972030;28;20789;-90
2023/09/28 02:09:33;;;;;;;17.03;9.63;;;;;;;14.39;100.00;100796.72;4974245;28;20453;-89
2023/09/28 02:12:03;;;;;;;12.98;8.85;;;;;;;14.38;100.00;100808.78;4972950;28;20433;-89
2023/09/28 02:14:32;;;;;;;13.67;9.10;;;;;;;14.44;100.00;100804.00;4973958;28;20423;-89
2023/09/28 02:17:01;;;;;;;15.10;9.23;;;;;;;14.40;100.00;100808.47;4980623;28;20431;-89
2023/09/28 02:19:28;;;;;;;13.93;9.20;;;;;;;14.46;100.00;100807.28;4984616;28;20803;-89
2023/09/28 02:21:56;;;;;;;15.07;8.90;;;;;;;14.45;100.00;100794.69;4982087;28;20424;-90
2023/09/28 02:24:24;;;;;;;13.00;9.05;;;;;;;14.46;100.00;100801.81;4977580;28;20425;-89
2023/09/28 02:26:57;;;;;;;13.38;9.52;;;;;;;14.56;100.00;100807.06;4981499;28;20454;-89
2023/09/28 02:29:24;;;;;;;13.63;9.27;;;;;;;14.54;100.00;100800.28;4981702;28;20419;-90
2023/09/28 02:31:59;;;;;;;16.15;9.73;;;;;;;14.50;100.00;100797.34;4983714;28;20418;-88
2023/09/28 02:34:28;;;;;;;15.60;9.60;;;;;;;14.54;100.00;100803.00;4998069;28;20437;-89
2023/09/28 02:36:56;;;;;;;17.15;10.27;;;;;;;14.54;100.00;100803.00;4991555;28;20418;-89
2023/09/28 02:39:23;;;;;;;15.20;10.05;;;;;;;14.62;100.00;100805.03;4975780;28;20429;-89
2023/09/28 02:41:51;;;;;;;14.30;10.13;;;;;;;14.60;100.00;100808.09;4974496;28;20518;-89
2023/09/28 02:44:19;;;;;;;18.15;10.25;;;;;;;14.57;100.00;100808.69;4980393;28;20431;-90
2023/09/28 02:46:47;;;;;;;16.40;10.27;;;;;;;14.56;100.00;100798.84;4970777;28;20428;-90
2023/09/28 02:49:16;;;;;;;15.48;10.05;;;;;;;14.55;100.00;100790.94;4981583;28;20423;-89
2023/09/28 02:51:45;;;;;;;17.02;10.00;;;;;;;14.58;100.00;100806.75;4959651;28;20432;-89
2023/09/28 02:54:17;;;;;;;15.45;10.50;;;;;;;14.54;100.00;100811.22;4975664;28;20412;-90
2023/09/28 02:56:50;;;;;;;15.82;10.90;;;;;;;14.55;100.00;100816.38;4994605;28;20425;-88
2023/09/28 02:59:23;;;;;;;15.75;10.82;;;;;;;14.57;100.00;100816.91;4979702;28;20412;-90
2023/09/28 03:01:52;;;;;;;18.02;10.68;;;;;;;14.54;100.00;100816.69;4986747;28;20429;-89
2023/09/28 03:04:20;;;;;;;19.60;10.97;;;;;;;14.58;100.00;100821.28;4974248;28;20429;-89
2023/09/28 03:06:54;;;;;;;19.27;11.18;;;;;;;14.52;100.00;100822.47;4968415;28;20422;-90
2023/09/28 03:09:21;;;;;;;15.97;10.77;;;;;;;14.55;100.00;100815.59;4961603;28;20429;-88
2023/09/28 03:11:55;;;;;;;18.33;10.38;;;;;;;14.56;100.00;100814.47;4974928;28;20432;-88
2023/09/28 03:14:22;;;;;;;17.30;10.88;;;;;;;14.54;100.00;100809.31;4980152;28;20422;-88
2023/09/28 03:16:50;;;;;;;16.55;10.48;;;;;;;14.53;100.00;100812.31;4981226;28;20461;-89
2023/09/28 03:19:17;;;;;;;16.35;10.50;;;;;;;14.49;100.00;100801.19;4987720;28;20423;-88
2023/09/28 03:21:54;;;;;;;15.90;10.00;;;;;;;14.45;100.00;100824.81;4964401;28;20420;-89
2023/09/28 03:24:27;;;;;;;15.57;10.57;;;;;;;14.35;100.00;100823.06;4979039;28;20414;-89
2023/09/28 03:26:55;;;;;;;18.55;11.07;;;;;;;14.35;100.00;100820.34;4981546;28;20428;-89
2023/09/28 03:29:22;;;;;;;19.07;11.03;;;;;;;14.38;100.00;100810.72;4975323;28;20435;-88
2023/09/28 03:31:50;;;;;;;16.83;10.98;;;;;;;14.36;100.00;100805.53;4982447;28;20913;-90
2023/09/28 03:34:18;;;;;;;16.55;10.82;;;;;;;14.32;100.00;100806.44;4977137;28;20882;-88
2023/09/28 03:36:46;;;;;;;16.88;11.15;;;;;;;14.35;100.00;100803.91;4982448;28;20426;-88
2023/09/28 03:39:16;;;;;;;18.95;11.30;;;;;;;14.36;100.00;100797.34;4982384;28;20435;-87
2023/09/28 03:41:44;;;;;;;17.97;10.73;;;;;;;14.32;100.00;100790.00;4976769;28;20418;-89
2023/09/28 03:44:12;;;;;;;22.63;11.13;;;;;;;14.33;100.00;100795.19;4969886;28;20434;-89
2023/09/28 03:46:41;;;;;;;16.33;10.77;;;;;;;14.34;100.00;100796.81;4979508;28;20422;-88
2023/09/28 03:49:09;;;;;;;18.98;11.60;;;;;;;14.31;100.00;100807.53;4975963;28;20897;-88
2023/09/28 03:51:37;;;;;;;18.53;11.90;;;;;;;14.28;100.00;100804.31;4985318;28;20414;-90
2023/09/28 03:54:11;;;;;;;17.85;11.93;;;;;;;14.29;100.00;100818.78;4981077;28;20439;-88
2023/09/28 03:56:41;;;;;;;14.65;10.85;;;;;;;14.23;100.00;100825.50;4971406;28;20484;-88
2023/09/28 03:59:09;;;;;;;16.40;11.15;;;;;;;14.22;100.00;100824.66;4984443;28;20420;-89
2023/09/28 04:01:44;;;;;;;17.90;11.43;;;;;;;14.09;100.00;100812.56;4988710;28;20770;-89
2023/09/28 04:04:12;;;;;;;18.48;11.95;;;;;;;14.00;100.00;100814.38;4973648;28;20439;-88
2023/09/28 04:06:41;;;;;;;17.77;11.80;;;;;;;14.09;100.00;100812.56;4976266;28;20786;-88
2023/09/28 04:09:14;;;;;;;18.48;11.18;;;;;;;14.01;100.00;100793.31;4978074;28;20440;-89
2023/09/28 04:11:44;;;;;;;17.42;11.65;;;;;;;14.02;100.00;100805.88;4968390;28;20439;-88
2023/09/28 04:14:17;;;;;;;16.35;11.55;;;;;;;14.00;100.00;100799.88;4978048;28;20432;-88
2023/09/28 04:16:46;;;;;;;18.45;12.18;;;;;;;13.92;100.00;100795.91;4977446;28;20891;-87
2023/09/28 04:19:14;;;;;;;17.87;12.13;;;;;;;13.83;100.00;100786.78;4982469;28;20419;-87
2023/09/28 04:21:43;;;;;;;17.60;11.55;;;;;;;13.76;100.00;100779.75;4972824;28;20436;-88
2023/09/28 04:24:11;;;;;;;20.58;12.50;;;;;;;13.86;100.00;100788.91;4974606;28;20412;-88
2023/09/28 04:26:40;;;;;;;19.90;12.65;;;;;;;13.80;100.00;100784.63;4981662;28;20436;-88
2023/09/28 04:29:10;;;;;;;21.10;12.80;;;;;;;13.80;100.00;100779.97;4988099;28;20436;-88
2023/09/28 04:31:40;;;;;;;19.60;12.80;;;;;;;13.79;100.00;100781.06;4961760;28;20893;-89
2023/09/28 04:34:08;;;;;;;18.73;13.38;;;;;;;13.83;100.00;100790.31;4972147;28;20514;-88
2023/09/28 04:36:43;;;;;;;19.13;12.57;;;;;;;13.91;100.00;100789.63;4968906;28;20425;-88
2023/09/28 04:39:17;;;;;;;21.10;13.38;;;;;;;13.86;100.00;100786.97;4963349;28;20438;-87
2023/09/28 04:41:52;;;;;;;19.50;13.10;;;;;;;13.91;100.00;100778.69;4985415;28;20423;-88
2023/09/28 04:44:23;;;;;;;22.02;12.82;;;;;;;13.89;100.00;100777.34;4991957;28;20421;-88
2023/09/28 04:46:56;;;;;;;22.80;12.93;;;;;;;13.83;100.00;100779.38;4975603;28;20441;-90
2023/09/28 04:49:29;;;;;;;19.30;12.85;;;;;;;13.88;100.00;100775.72;4962075;28;20433;-88
2023/09/28 04:52:02;;;;;;;19.27;12.87;;;;;;;13.87;100.00;100776.84;4985184;28;20422;-89
2023/09/28 04:54:33;;;;;;;18.42;12.85;;;;;;;13.89;100.00;100771.88;4987291;28;20891;-88
2023/09/28 04:57:06;;;;;;;22.55;13.73;;;;;;;13.91;100.00;100781.41;4974082;28;20972;-87
2023/09/28 04:59:41;;;;;;;17.85;12.88;;;;;;;13.88;100.00;100781.19;4977943;28;20436;-88
2023/09/28 05:02:10;;;;;;;20.58;13.02;;;;;;;13.90;100.00;100779.78;4976872;28;20443;-88
2023/09/28 05:04:40;;;;;;;21.77;13.10;;;;;;;13.89;100.00;100769.16;4975409;28;20436;-88
2023/09/28 05:07:08;;;;;;;22.08;13.60;;;;;;;13.86;100.00;100777.97;4976470;28;20446;-88
2023/09/28 05:09:38;;;;;;;20.63;13.55;;;;;;;13.83;100.00;100768.41;4966213;28;20463;-87
2023/09/28 05:12:11;;;;;;;22.80;13.95;;;;;;;13.87;100.00;100780.41;4978929;28;20440;-89
2023/09/28 05:14:46;;;;;;;21.15;14.52;;;;;;;13.88;100.00;100795.69;4974971;28;20431;-87
2023/09/28 05:17:14;;;;;;;20.30;13.80;;;;;;;13.90;100.00;100806.34;4973428;28;20775;-90
2023/09/28 05:19:48;;;;;;;22.92;14.13;;;;;;;13.87;100.00;100799.53;4977887;28;20445;-87
2023/09/28 05:22:16;;;;;;;23.87;14.37;;;;;;;13.86;100.00;100810.78;4977215;28;20809;-89
2023/09/28 05:24:45;;;;;;;21.33;13.93;;;;;;;13.89;100.00;100812.91;4973360;28;20422;-88
2023/09/28 05:27:18;;;;;;;22.23;14.18;;;;;;;13.87;100.00;100807.75;4973553;28;20429;-88
2023/09/28 05:29:53;;;;;;;21.70;13.80;;;;;;;13.94;100.00;100813.63;4979952;28;20433;-89
2023/09/28 05:32:26;;;;;;;20.27;13.50;;;;;;;13.92;100.00;100815.03;4978500;28;20437;-89
2023/09/28 05:34:54;;;;;;;19.58;13.70;;;;;;;13.94;100.00;100818.31;4983188;28;20429;-89
2023/09/28 05:37:27;;;;;;;22.30;14.65;;;;;;;13.90;100.00;100818.09;4976457;28;20419;-88
2023/09/28 05:39:56;;;;;;;21.08;14.02;;;;;;;13.93;100.00;100816.69;4972124;28;20453;-88
2023/09/28 05:42:29;;;;;;;24.35;14.35;;;;;;;13.95;100.00;100825.41;4973511;28;20433;-88
2023/09/28 05:45:04;;;;;;;22.95;14.40;;;;;;;13.95;100.00;100834.44;4973600;28;20432;-88
2023/09/28 05:47:37;;;;;;;21.70;13.97;;;;;;;13.98;100.00;100818.53;4967252;28;20430;-87
2023/09/28 05:50:11;;;;;;;25.27;14.00;;;;;;;13.99;100.00;100820.97;4978390;28;20424;-87
2023/09/28 05:52:40;;;;;;;21.55;13.90;;;;;;;14.02;100.00;100816.81;4975014;28;20902;-89
2023/09/28 05:55:09;;;;;;;22.07;13.97;;;;;;;13.98;100.00;100815.81;4979530;28;20430;-88
2023/09/28 05:57:37;;;;;;;22.40;14.20;;;;;;;14.05;100.00;100821.69;4971967;28;20435;-88
2023/09/28 06:00:09;;;;;;;22.08;13.48;;;;;;;14.07;100.00;100828.50;4971137;28;20441;-87
2023/09/28 06:02:42;;;;;;;21.38;13.65;;;;;;;14.18;100.00;100839.25;4989210;28;20435;-87
2023/09/28 06:05:16;;;;;;;24.40;14.25;;;;;;;14.15;100.00;100837.94;4976903;28;20441;-88
2023/09/28 06:07:44;;;;;;;19.58;13.43;;;;;;;14.17;100.00;100827.50;4973040;28;20436;-90
2023/09/28 06:10:17;;;;;;;18.70;13.23;;;;;;;14.23;100.00;100839.16;4971654;28;20428;-88
2023/09/28 06:12:45;;;;;;;21.90;14.63;;;;;;;14.24;100.00;100838.88;4967839;28;20987;-88
2023/09/28 06:15:15;;;;;;;22.50;14.05;;;;;;;14.33;100.00;100851.88;4974369;28;20538;-88
2023/09/28 06:17:48;;;;;;;20.52;13.68;;;;;;;14.38;100.00;100854.53;4980865;28;20445;-87
2023/09/28 06:20:22;;;;;;;22.20;13.60;;;;;;;14.43;100.00;100854.41;4971178;28;20523;-88
2023/09/28 06:22:55;;;;;;;20.63;14.02;;;;;;;14.47;100.00;100847.22;4970487;28;20442;-88
2023/09/28 06:25:23;;;;;;;23.10;13.98;;;;;;;14.51;100.00;100850.16;4973989;28;20436;-88
2023/09/28 06:27:51;;;;;;;21.53;13.57;;;;;;;14.58;100.00;100845.94;4977510;28;20787;-87
2023/09/28 06:30:21;;;;;;;20.35;13.25;;;;;;;14.65;100.00;100847.47;4979752;28;20440;-88
2023/09/28 06:32:54;;;;;;;23.00;13.30;;;;;;;14.71;100.00;100851.75;4969350;28;20448;-89
2023/09/28 06:35:22;;;;;;;18.05;12.75;;;;;;;14.76;100.00;100854.38;4975727;28;20424;-89
2023/09/28 06:37:55;;;;;;;21.30;12.82;;;;;;;14.81;100.00;100856.22;4968170;28;20424;-88
2023/09/28 06:40:29;;;;;;;23.25;12.50;;;;;;;14.84;100.00;100872.06;4972115;28;20434;-89
2023/09/28 06:43:02;;;;;;;19.65;12.68;;;;;;;14.95;100.00;100865.25;4973643;28;20437;-87
2023/09/28 06:45:37;;;;;;;22.15;13.07;;;;;;;14.95;100.00;100868.78;4974830;28;20443;-88
2023/09/28 06:48:07;;;;;;;18.58;12.60;;;;;;;15.00;100.00;100873.38;4960305;28;20424;-86
2023/09/28 06:50:40;;;;;;;18.45;12.35;;;;;;;15.03;100.00;100875.50;4976529;28;20441;-86
2023/09/28 06:53:14;;;;;;;22.42;12.57;;;;;;;15.15;100.00;100880.47;4974226;28;20424;-85
2023/09/28 06:55:43;;;;;;;18.35;12.25;;;;;;;15.16;100.00;100881.28;4980964;28;20440;-84
2023/09/28 06:58:17;;;;;;;19.10;11.77;;;;;;;15.32;100.00;100884.53;4974253;28;20459;-86
2023/09/28 07:00:52;;;;;;;21.38;11.93;;;;;;;15.37;100.00;100890.69;4968547;28;20437;-88
2023/09/28 07:03:26;;;;;;;18.03;11.63;;;;;;;15.44;100.00;100891.09;4967777;28;20441;-86
2023/09/28 07:06:00;;;;;;;18.93;11.20;;;;;;;15.53;100.00;100891.16;4974781;28;20428;-87
2023/09/28 07:08:29;;;;;;;19.07;11.33;;;;;;;15.53;100.00;100882.94;4976652;28;20429;-86
2023/09/28 07:11:02;;;;;;;16.55;10.77;;;;;;;15.56;100.00;100887.78;4973474;28;20443;-85
2023/09/28 07:13:30;;;;;;;18.20;11.68;;;;;;;15.58;100.00;100898.50;4979662;28;20436;-86
2023/09/28 07:16:00;;;;;;;17.15;10.38;;;;;;;15.65;100.00;100902.41;4981902;28;20420;-85
2023/09/28 07:18:28;;;;;;;16.52;11.15;;;;;;;15.69;100.00;100907.28;4972432;28;20432;-85
2023/09/28 07:20:56;;;;;;;18.20;10.90;;;;;;;15.74;100.00;100910.75;4971930;28;21140;-84
2023/09/28 07:23:24;;;;;;;16.23;10.70;;;;;;;15.78;100.00;100908.19;4974273;28;20436;-85
2023/09/28 07:25:57;;;;;;;15.02;10.40;;;;;;;15.81;100.00;100910.31;4955256;28;20455;-86
2023/09/28 07:28:26;;;;;;;18.60;10.45;;;;;;;15.93;100.00;100907.84;4950659;28;20443;-87
2023/09/28 07:30:58;;;;;;;18.95;10.73;;;;;;;16.08;100.00;100916.84;4952239;28;20797;-87
2023/09/28 07:33:28;;;;;;;13.47;9.90;;;;;;;16.26;100.00;100907.59;4951038;28;20436;-86
2023/09/28 07:35:56;;;;;;;15.65;10.05;;;;;;;16.21;100.00;100918.72;4961852;28;20428;-86
2023/09/28 07:38:24;;;;;;;16.47;10.37;;;;;;;16.33;100.00;100913.47;4953039;28;20428;-86
2023/09/28 07:40:57;;;;;;;16.20;9.40;;;;;;;16.30;100.00;100907.81;4957853;28;20424;-85
2023/09/28 07:43:27;;;;;;;15.50;8.60;;;;;;;16.49;100.00;100913.09;4957552;28;20447;-87
2023/09/28 07:45:55;;;;;;;14.15;9.05;;;;;;;16.45;100.00;100914.84;4953382;28;20477;-88
2023/09/28 07:48:23;;;;;;;15.73;9.05;;;;;;;16.47;100.00;100913.41;4958070;28;20498;-87
2023/09/28 07:50:58;;;;;;;14.18;8.60;;;;;;;16.63;100.00;100907.53;4952038;28;20431;-86
2023/09/28 07:53:32;;;;;;;14.52;8.18;;;;;;;16.73;100.00;100920.97;4952968;28;21172;-88
2023/09/28 07:56:00;;;;;;;14.70;8.98;;;;;;;16.70;100.00;100921.59;4968742;28;20439;-87
2023/09/28 07:58:28;;;;;;;12.77;8.00;;;;;;;16.73;100.00;100923.72;4958421;28;20444;-87
2023/09/28 08:34:20;;;;;;;14.63;7.30;;;;;;;17.44;100.00;100968.81;4946031;28;20447;-88
2023/09/28 08:36:48;;;;;;;12.77;7.10;;;;;;;17.50;100.00;100959.31;4923068;28;20449;-90
2023/09/28 08:39:16;;;;;;;12.82;7.53;;;;;;;17.72;100.00;100968.56;4929691;28;20832;-88
2023/09/28 08:41:47;;;;;;;10.93;6.80;;;;;;;17.51;100.00;100960.91;4926874;28;21179;-89
2023/09/28 08:44:15;;;;;;;12.20;7.10;;;;;;;17.79;100.00;100972.47;4929334;28;20891;-90
2023/09/28 08:46:45;;;;;;;13.13;7.53;;;;;;;17.56;100.00;100973.72;4918224;28;20442;-89
2023/09/28 08:49:14;;;;;;;11.75;7.43;;;;;;;17.53;100.00;100977.13;4920551;28;20434;-88
2023/09/28 08:51:45;;;;;;;13.50;7.63;;;;;;;17.38;100.00;100950.88;4911601;28;20446;-91
2023/09/28 08:54:14;;;;;;;13.52;7.45;;;;;;;17.61;100.00;100971.63;4936461;28;20437;-89
2023/09/28 08:56:44;;;;;;;11.00;7.40;;;;;;;17.62;100.00;100970.50;4910676;28;20438;-89
2023/09/28 08:59:13;;;;;;;14.77;7.45;;;;;;;17.82;100.00;100971.03;4928803;28;21321;-92
2023/09/28 09:01:42;;;;;;;12.90;7.50;;;;;;;17.86;100.00;100963.75;4923491;28;20453;-88
2023/09/28 09:04:11;;;;;;;17.83;7.63;;;;;;;17.87;100.00;100981.88;4918838;28;20452;-91
2023/09/28 09:06:42;;;;;;;13.18;7.00;;;;;;;17.95;100.00;100977.53;4921606;28;20433;-90
2023/09/28 09:09:15;;;;;;;11.70;7.45;;;;;;;18.04;100.00;100983.88;4934718;28;20441;-88
2023/09/28 09:11:50;;;;;;;16.77;7.60;;;;;;;18.23;100.00;100983.56;4911044;28;20429;-88
2023/09/28 09:14:20;;;;;;;12.60;7.15;;;;;;;18.41;100.00;100987.09;4911563;28;20904;-88
2023/09/28 09:16:49;;;;;;;10.48;7.10;;;;;;;18.35;100.00;100991.16;4926522;28;20438;-89
2023/09/28 09:19:18;;;;;;;14.38;7.47;;;;;;;18.42;100.00;101008.03;4907209;28;20430;-89
2023/09/28 09:21:46;;;;;;;12.30;7.35;;;;;;;18.40;100.00;100996.50;4921228;28;20654;-90
2023/09/28 09:24:18;;;;;;;13.77;7.60;;;;;;;18.61;100.00;100999.38;4911512;28;20442;-88
2023/09/28 09:26:55;;;;;;;13.75;7.80;;;;;;;18.48;100.00;101016.94;4905043;28;21483;-88
2023/09/28 09:29:24;;;;;;;14.47;7.53;;;;;;;18.60;100.00;101014.31;4920085;28;20442;-89
2023/09/28 09:31:52;;;;;;;13.82;7.15;;;;;;;18.61;100.00;101021.44;4915709;28;21512;-87
2023/09/28 09:34:22;;;;;;;12.77;7.10;;;;;;;18.62;100.00;101014.78;4921913;28;20425;-88
2023/09/28 09:36:55;;;;;;;10.80;6.60;;;;;;;18.77;100.00;101007.16;4917444;28;20434;-87
2023/09/28 09:39:27;;;;;;;11.82;6.65;;;;;;;18.95;100.00;101021.75;4931873;28;20438;-88
2023/09/28 09:44:52;;;;;;;11.70;6.20;;;;;;;19.04;100.00;100994.94;4944149;28;20427;-88
2023/09/28 09:47:26;;;;;;;11.60;5.90;;;;;;;19.04;100.00;100994.94;4935860;28;20733;-86
2023/09/28 09:49:55;;;;;;;10.82;5.70;;;;;;;19.15;100.00;100996.19;4952121;28;20449;-83
2023/09/28 09:52:26;;;;;;;9.30;5.90;;;;;;;19.20;100.00;100998.78;4966315;28;20443;-87
2023/09/28 09:55:01;;;;;;;10.40;5.40;;;;;;;19.39;100.00;100997.56;4958514;28;20936;-86
2023/09/28 09:57:35;;;;;;;11.10;5.72;;;;;;;19.45;100.00;101007.25;4955401;28;20882;-85
2023/09/28 10:00:09;;;;;;;10.32;5.28;;;;;;;19.47;100.00;101015.22;4945058;28;20433;-85
2023/09/28 10:02:40;;;;;;;9.50;5.00;;;;;;;19.57;100.00;101014.84;4961882;28;20438;-86
2023/09/28 10:05:13;;;;;;;11.90;5.32;;;;;;;19.60;100.00;101021.66;4947814;28;21424;-83
2023/09/28 10:07:47;;;;;;;12.10;5.57;;;;;;;19.44;100.00;101002.88;4944102;28;20449;-86
2023/09/28 10:10:24;;;;;;;10.75;5.50;;;;;;;19.60;100.00;101014.19;4967690;28;20434;-85
2023/09/28 10:12:52;;;;;;;8.63;5.00;;;;;;;19.65;100.00;101011.22;4950839;28;20445;-85
2023/09/28 10:15:21;;;;;;;10.13;5.10;;;;;;;19.64;100.00;101014.34;4959106;28;20434;-87
2023/09/28 10:17:55;;;;;;;10.30;4.93;;;;;;;19.51;100.00;101018.94;4946396;28;20442;-86
2023/09/28 10:20:28;;;;;;;10.05;4.80;;;;;;;19.51;100.00;101024.44;4951716;28;20430;-85
2023/09/28 10:23:12;;;;;;;9.45;5.07;;;;;;;19.71;100.00;101025.66;4961298;28;20435;-85
2023/09/28 10:25:57;;;;;;;11.85;5.00;;;;;;;19.78;100.00;101022.38;4950598;28;20691;-85
2023/09/28 10:28:25;;;;;;;10.68;5.10;;;;;;;19.78;100.00;101022.38;4960560;28;20438;-84
2023/09/28 10:31:07;;;;;;;14.73;5.40;;;;;;;19.82;100.00;101026.91;4960968;28;20840;-86
2023/09/28 10:33:35;;;;;;;9.32;5.00;;;;;;;19.96;100.00;101034.16;4953733;28;20958;-84
2023/09/28 10:36:12;;;;;;;9.87;4.87;;;;;;;20.12;100.00;101028.81;4964584;28;20945;-84
2023/09/28 10:38:46;;;;;;;9.73;5.03;;;;;;;20.12;100.00;101028.81;4975127;28;20430;-86
2023/09/28 10:41:21;;;;;;;10.27;5.03;;;;;;;20.18;100.00;101022.75;4960235;28;20449;-84
2023/09/28 10:43:51;;;;;;;11.05;5.05;;;;;;;20.12;100.00;101032.41;4963083;28;20421;-87
2023/09/28 10:46:24;;;;;;;11.13;5.43;;;;;;;20.13;100.00;101035.97;4957618;28;20923;-85
2023/09/28 10:48:58;;;;;;;11.82;5.35;;;;;;;20.25;100.00;101026.94;4975034;28;20964;-85
2023/09/28 10:51:26;;;;;;;12.25;5.10;;;;;;;20.14;100.00;101021.00;4946572;28;20430;-83
2023/09/28 10:53:54;;;;;;;13.02;5.35;;;;;;;20.23;100.00;101035.56;4966506;28;20924;-83
2023/09/28 10:56:29;;;;;;;12.07;4.90;;;;;;;20.28;100.00;101029.03;4956810;28;20442;-83
2023/09/28 10:58:59;;;;;;;11.52;4.90;;;;;;;20.24;100.00;101036.38;4949020;28;21169;-83
2023/09/28 11:01:33;;;;;;;12.38;4.80;;;;;;;20.25;100.00;101032.47;4956241;28;20465;-84
2023/09/28 11:04:06;;;;;;;14.18;4.90;;;;;;;20.32;100.00;101035.50;4955420;28;20439;-85
2023/09/28 11:06:41;;;;;;;9.67;4.70;;;;;;;20.41;100.00;101041.78;4953418;28;20438;-84
2023/09/28 11:09:09;;;;;;;9.98;4.43;;;;;;;20.38;100.00;101034.13;4952523;28;21132;-84
2023/09/28 11:11:39;;;;;;;9.43;4.80;;;;;;;20.44;100.00;101035.56;4952965;28;21118;-84
2023/09/28 11:14:08;;;;;;;10.03;4.73;;;;;;;20.52;100.00;101034.69;4948594;28;20435;-85
2023/09/28 11:16:41;;;;;;;9.32;4.93;;;;;;;20.46;100.00;101022.19;4954356;28;20438;-85
2023/09/28 11:19:10;;;;;;;12.25;5.35;;;;;;;20.69;100.00;101027.41;4959403;28;20442;-85
2023/09/28 11:21:46;;;;;;;11.00;4.90;;;;;;;20.60;100.00;101030.19;4950431;28;20438;-85
2023/09/28 11:24:21;;;;;;;11.07;4.60;;;;;;;20.60;100.00;101038.50;4947490;28;20439;-86
2023/09/28 11:26:57;;;;;;;10.07;5.00;;;;;;;20.72;100.00;101030.28;4936477;28;20438;-85
2023/09/28 11:29:26;;;;;;;9.75;4.70;;;;;;;20.63;100.00;101037.84;4967029;28;20426;-84
2023/09/28 11:31:59;;;;;;;8.93;4.13;;;;;;;20.62;100.00;101038.97;4958442;28;20422;-86
2023/09/28 11:34:29;;;;;;;10.20;4.45;;;;;;;20.83;100.00;101027.91;4959511;28;20427;-84
2023/09/28 11:36:57;;;;;;;11.93;5.90;;;;;;;20.79;100.00;101021.44;4950182;28;20449;-85
2023/09/28 11:39:31;;;;;;;13.32;6.03;;;;;;;20.84;100.00;101020.41;4954746;28;20441;-86
2023/09/28 11:42:01;;;;;;;9.23;4.43;;;;;;;20.79;100.00;101017.88;4953365;28;20437;-83
2023/09/28 11:44:30;;;;;;;7.40;4.07;;;;;;;20.77;100.00;101020.16;4945643;28;20435;-85
2023/09/28 11:47:06;;;;;;;10.43;4.50;;;;;;;20.47;100.00;101015.53;4944889;28;20431;-85
2023/09/28 11:49:36;;;;;;;10.10;3.95;;;;;;;20.48;100.00;101000.56;4948570;28;20910;-85
2023/09/28 11:52:05;;;;;;;8.20;4.20;;;;;;;20.59;100.00;101006.50;4946944;28;20426;-85
2023/09/28 11:54:33;;;;;;;11.27;4.15;;;;;;;20.65;100.00;100996.81;4953845;28;20782;-86
2023/09/28 11:57:09;;;;;;;10.65;4.32;;;;;;;20.76;100.00;101004.72;4954733;28;20543;-84
2023/09/28 11:59:38;;;;;;;12.90;7.15;;;;;;;20.86;100.00;101010.59;4959602;28;20944;-86